createdAt,value
2022-11-08T00:04:56.327Z,654
2022-11-08T00:10:26.977Z,657
2022-11-08T00:15:56.443Z,650
2022-11-08T00:21:26.985Z,655
2022-11-08T00:26:57.487Z,656
2022-11-08T00:32:26.945Z,655
2022-11-08T00:37:56.690Z,653
2022-11-08T00:43:27.440Z,651
2022-11-08T00:48:57.841Z,654
2022-11-08T00:54:27.325Z,653
2022-11-08T00:59:57.839Z,654
2022-11-08T01:05:26.309Z,650
2022-11-08T01:10:56.792Z,652
2022-11-08T01:16:26.340Z,649
2022-11-08T01:21:56.771Z,650
2022-11-08T01:27:25.398Z,658
2022-11-08T01:32:56.030Z,653
2022-11-08T01:38:25.505Z,656
2022-11-08T01:43:55.993Z,650
2022-11-08T01:49:25.497Z,646
2022-11-08T01:54:55.956Z,652
2022-11-08T02:00:26.673Z,645
2022-11-08T02:05:57.276Z,653
2022-11-08T02:11:27.725Z,645
2022-11-08T02:16:58.301Z,654
2022-11-08T02:22:28.942Z,653
2022-11-08T02:27:56.556Z,652
2022-11-08T02:33:27.158Z,652
2022-11-08T02:38:57.680Z,648
2022-11-08T02:44:28.182Z,652
2022-11-08T02:49:57.662Z,653
2022-11-08T02:55:27.295Z,655
2022-11-08T03:00:57.745Z,651
2022-11-08T03:06:28.225Z,654
2022-11-08T03:11:58.925Z,645
2022-11-08T03:17:28.465Z,643
2022-11-08T03:22:57.956Z,647
2022-11-08T03:28:28.689Z,647
2022-11-08T03:33:57.942Z,640
2022-11-08T03:39:27.549Z,638
2022-11-08T03:44:56.209Z,640
2022-11-08T03:50:24.819Z,640
2022-11-08T03:55:55.297Z,638
2022-11-08T04:01:25.973Z,637
2022-11-08T04:06:56.371Z,633
2022-11-08T04:12:24.909Z,629
2022-11-08T04:17:55.473Z,628
2022-11-08T04:23:23.876Z,628
2022-11-08T04:28:54.353Z,626
2022-11-08T04:34:24.138Z,625
2022-11-08T04:39:54.590Z,628
2022-11-08T04:45:24.090Z,626
2022-11-08T04:50:54.594Z,627
2022-11-08T04:56:23.101Z,630
2022-11-08T05:01:53.847Z,632
2022-11-08T05:07:24.087Z,630
2022-11-08T05:12:54.679Z,627
2022-11-08T05:18:24.296Z,623
2022-11-08T05:23:53.817Z,615
2022-11-08T05:29:22.329Z,622
2022-11-08T05:34:52.749Z,623
2022-11-08T05:40:23.278Z,621
2022-11-08T05:45:53.836Z,626
2022-11-08T05:51:23.478Z,623
2022-11-08T05:56:54.236Z,623
2022-11-08T06:02:24.861Z,624
2022-11-08T06:07:55.222Z,621
2022-11-08T06:13:24.708Z,625
2022-11-08T06:18:54.294Z,622
2022-11-08T06:24:22.816Z,627
2022-11-08T06:29:53.330Z,614
2022-11-08T06:35:23.760Z,622
2022-11-08T06:40:53.251Z,618
2022-11-08T06:46:24.102Z,617
2022-11-08T06:51:54.548Z,623
2022-11-08T06:57:25.140Z,621
2022-11-08T07:02:55.828Z,628
2022-11-08T07:08:26.117Z,622
2022-11-08T07:13:56.756Z,620
2022-11-08T07:19:25.556Z,619
2022-11-08T07:24:56.133Z,616
2022-11-08T07:30:26.750Z,620
2022-11-08T07:35:57.322Z,613
2022-11-08T07:41:27.934Z,613
2022-11-08T07:46:58.618Z,620
2022-11-08T07:52:29.132Z,614
2022-11-08T07:57:59.651Z,613
2022-11-08T08:03:30.307Z,616
2022-11-08T08:08:59.984Z,622
2022-11-08T08:14:29.691Z,625
2022-11-08T08:20:00.190Z,622
2022-11-08T08:25:30.671Z,622
2022-11-08T08:31:01.241Z,620
2022-11-08T08:36:31.730Z,619
2022-11-08T08:42:01.492Z,619
2022-11-08T08:47:31.948Z,614
2022-11-08T08:53:02.423Z,603
2022-11-08T08:58:33.137Z,604
2022-11-08T09:04:03.714Z,606
2022-11-08T09:09:34.574Z,611
2022-11-08T09:15:05.097Z,612
2022-11-08T09:20:35.513Z,612
2022-11-08T09:26:06.105Z,608
2022-11-08T09:31:35.650Z,601
2022-11-08T09:37:05.313Z,600
2022-11-08T09:42:35.699Z,604
2022-11-08T09:48:06.244Z,601
2022-11-08T09:53:35.678Z,608
2022-11-08T09:59:05.306Z,601
2022-11-08T10:04:35.814Z,605
2022-11-08T10:10:06.260Z,599
2022-11-08T10:15:35.740Z,594
2022-11-08T10:21:05.394Z,608
2022-11-08T10:26:34.121Z,604
2022-11-08T10:32:04.615Z,600
2022-11-08T10:37:35.233Z,603
2022-11-08T10:43:09.340Z,604
2022-11-08T10:48:36.169Z,609
2022-11-08T10:54:06.876Z,611
2022-11-08T10:59:34.281Z,607
2022-11-08T11:05:04.812Z,608
2022-11-08T11:10:35.394Z,613
2022-11-08T11:16:04.885Z,611
2022-11-08T11:21:33.493Z,610
2022-11-08T11:27:04.002Z,604
2022-11-08T11:32:34.457Z,609
2022-11-08T11:38:03.946Z,606
2022-11-08T11:43:34.620Z,601
2022-11-08T11:49:04.055Z,605
2022-11-08T11:54:34.528Z,604
2022-11-08T12:00:05.212Z,606
2022-11-08T12:05:35.603Z,599
2022-11-08T12:11:04.232Z,599
2022-11-08T12:16:34.921Z,601
2022-11-08T12:22:05.320Z,611
2022-11-08T12:27:35.790Z,603
2022-11-08T12:33:05.354Z,603
2022-11-08T12:38:34.928Z,613
2022-11-08T12:44:05.402Z,607
2022-11-08T12:49:34.916Z,601
2022-11-08T12:55:05.371Z,604
2022-11-08T13:00:35.197Z,602
2022-11-08T13:06:04.712Z,597
2022-11-08T13:11:35.254Z,594
2022-11-08T13:17:05.726Z,594
2022-11-08T13:22:35.371Z,599
2022-11-08T13:28:04.102Z,598
2022-11-08T13:33:34.576Z,604
2022-11-08T13:39:05.198Z,592
2022-11-08T13:44:35.644Z,595
2022-11-08T13:50:06.177Z,590
2022-11-08T13:55:36.044Z,590
2022-11-08T14:01:06.631Z,590
2022-11-08T14:06:37.087Z,595
2022-11-08T14:12:07.607Z,594
2022-11-08T14:17:37.207Z,591
2022-11-08T14:23:06.716Z,592
2022-11-08T14:28:37.197Z,593
2022-11-08T14:34:07.727Z,591
2022-11-08T14:39:38.200Z,590
2022-11-08T14:45:07.995Z,590
2022-11-08T14:50:38.463Z,591
2022-11-08T14:56:08.955Z,594
2022-11-08T15:01:38.484Z,591
2022-11-08T15:07:08.947Z,590
2022-11-08T15:12:38.380Z,587
2022-11-08T15:18:10.038Z,589
2022-11-08T15:23:39.727Z,590
2022-11-08T15:29:10.215Z,592
2022-11-08T15:34:40.942Z,589
2022-11-08T15:40:11.400Z,586
2022-11-08T15:45:42.138Z,592
2022-11-08T15:51:12.760Z,585
2022-11-08T15:56:43.146Z,586
2022-11-08T16:02:13.765Z,588
2022-11-08T16:07:44.513Z,582
2022-11-08T16:13:14.983Z,587
2022-11-08T16:18:45.454Z,585
2022-11-08T16:24:14.942Z,584
2022-11-08T16:29:44.418Z,583
2022-11-08T16:35:13.121Z,581
2022-11-08T16:40:41.774Z,583
2022-11-08T16:46:12.255Z,581
2022-11-08T16:51:42.715Z,578
2022-11-08T16:57:33.662Z,578
2022-11-08T17:02:41.826Z,581
2022-11-08T17:08:12.297Z,583
2022-11-08T17:13:42.780Z,582
2022-11-08T17:19:12.400Z,584
2022-11-08T17:24:42.999Z,585
2022-11-08T17:30:12.749Z,583
2022-11-08T17:35:44.681Z,583
2022-11-08T17:41:13.672Z,578
2022-11-08T17:46:44.304Z,578
2022-11-08T17:52:14.899Z,572
2022-11-08T17:57:44.638Z,582
2022-11-08T18:03:15.185Z,580
2022-11-08T18:08:45.579Z,579
2022-11-08T18:14:16.177Z,581
2022-11-08T18:19:46.688Z,579
2022-11-08T18:25:15.296Z,577
2022-11-08T18:30:47.850Z,576
2022-11-08T18:36:13.721Z,578
2022-11-08T18:42:50.243Z,583
2022-11-08T18:48:19.773Z,584
2022-11-08T18:53:50.229Z,587
2022-11-08T18:59:19.830Z,582
2022-11-08T19:04:50.307Z,577
2022-11-08T19:10:20.836Z,578
2022-11-08T19:15:51.395Z,585
2022-11-08T19:21:21.021Z,581
2022-11-08T19:26:50.015Z,580
2022-11-08T19:32:20.337Z,582
2022-11-08T19:37:50.741Z,579
2022-11-08T19:43:21.640Z,589
2022-11-08T19:48:51.967Z,588
2022-11-08T19:54:22.545Z,594
2022-11-08T19:59:53.044Z,591
2022-11-08T20:05:23.503Z,595
2022-11-08T20:10:54.077Z,596
2022-11-08T20:16:23.722Z,600
2022-11-08T20:21:54.594Z,603
2022-11-08T20:27:24.075Z,607
2022-11-08T20:32:54.564Z,610
2022-11-08T20:38:24.018Z,614
2022-11-08T20:43:54.849Z,645
2022-11-08T20:49:25.376Z,680
2022-11-08T20:54:55.312Z,724
2022-11-08T21:00:44.213Z,783
2022-11-08T21:05:54.970Z,826
2022-11-08T21:11:24.421Z,855
2022-11-08T21:17:22.630Z,898
2022-11-08T21:22:24.621Z,911
2022-11-08T21:27:55.141Z,927
2022-11-08T21:33:25.599Z,953
2022-11-08T21:38:54.180Z,996
2022-11-08T21:44:23.612Z,1025
2022-11-08T21:49:54.198Z,1048
2022-11-08T21:55:24.701Z,1034
2022-11-08T22:00:55.297Z,1070
2022-11-08T22:06:25.741Z,1071
2022-11-08T22:11:54.528Z,1084
2022-11-08T22:17:24.172Z,1105
2022-11-08T22:22:54.620Z,1151
2022-11-08T22:28:24.137Z,1175
2022-11-08T22:33:54.618Z,1190
2022-11-08T22:39:24.227Z,1200
2022-11-08T22:44:54.813Z,1207
2022-11-08T22:50:25.271Z,1247
2022-11-08T22:55:55.847Z,1247
2022-11-08T23:01:25.512Z,1225
2022-11-08T23:06:54.035Z,1232
2022-11-08T23:12:24.428Z,1238
2022-11-08T23:17:54.950Z,1272
2022-11-08T23:23:24.400Z,1303
2022-11-08T23:28:55.159Z,1311
2022-11-08T23:34:23.666Z,1330
2022-11-08T23:39:54.308Z,1359
2022-11-08T23:45:24.765Z,1368
2022-11-08T23:50:54.365Z,1363
2022-11-08T23:56:23.872Z,1378
